createdAt,value
2022-10-26T00:01:02.565Z,17.31
2022-10-26T00:03:29.412Z,17.30
2022-10-26T00:06:02.127Z,17.28
2022-10-26T00:08:29.015Z,17.29
2022-10-26T00:10:57.699Z,17.22
2022-10-26T00:13:24.828Z,17.21
2022-10-26T00:15:51.696Z,17.22
2022-10-26T00:18:18.552Z,17.22
2022-10-26T00:20:45.397Z,17.20
2022-10-26T00:23:12.450Z,17.21
2022-10-26T00:25:39.246Z,17.21
2022-10-26T00:28:06.223Z,17.21
2022-10-26T00:30:32.963Z,17.20
2022-10-26T00:32:59.649Z,17.17
2022-10-26T00:35:41.363Z,17.10
2022-10-26T00:38:12.452Z,17.10
2022-10-26T00:40:40.785Z,17.07
2022-10-26T00:43:15.853Z,17.03
2022-10-26T00:45:43.247Z,16.99
2022-10-26T00:48:15.748Z,16.97
2022-10-26T00:50:44.564Z,17.00
2022-10-26T00:53:12.356Z,16.96
2022-10-26T00:55:41.955Z,16.94
2022-10-26T00:58:09.995Z,16.89
2022-10-26T01:00:37.092Z,16.83
2022-10-26T01:03:08.417Z,16.83
2022-10-26T01:05:37.291Z,16.81
2022-10-26T01:08:04.448Z,16.82
2022-10-26T01:10:32.108Z,16.81
2022-10-26T01:12:58.949Z,16.79
2022-10-26T01:15:31.280Z,16.77
2022-10-26T01:18:02.430Z,16.79
2022-10-26T01:20:43.508Z,16.78
2022-10-26T01:23:36.807Z,16.78
2022-10-26T01:26:03.484Z,16.79
2022-10-26T01:28:36.096Z,16.77
2022-10-26T01:31:05.020Z,16.75
2022-10-26T01:33:50.704Z,16.75
2022-10-26T01:36:17.611Z,16.72
2022-10-26T01:39:03.247Z,16.70
2022-10-26T01:41:35.940Z,16.70
2022-10-26T01:44:04.827Z,16.65
2022-10-26T01:46:39.572Z,16.60
2022-10-26T01:49:09.435Z,16.58
2022-10-26T01:51:36.648Z,16.55
2022-10-26T01:54:03.470Z,16.50
2022-10-26T01:56:34.231Z,16.48
2022-10-26T01:59:16.612Z,16.45
2022-10-26T02:01:46.470Z,16.43
2022-10-26T02:04:22.548Z,16.39
2022-10-26T02:06:56.870Z,16.35
2022-10-26T02:09:33.212Z,16.33
2022-10-26T02:12:05.438Z,16.30
2022-10-26T02:14:41.366Z,16.30
2022-10-26T02:17:11.919Z,16.23
2022-10-26T02:19:44.664Z,16.19
2022-10-26T02:22:14.430Z,16.15
2022-10-26T02:24:41.653Z,16.16
2022-10-26T02:27:11.787Z,16.13
2022-10-26T02:29:39.400Z,16.12
2022-10-26T02:32:08.608Z,16.08
2022-10-26T02:34:37.862Z,16.04
2022-10-26T02:37:05.104Z,15.99
2022-10-26T02:39:33.773Z,15.96
2022-10-26T02:42:03.049Z,15.92
2022-10-26T02:44:31.578Z,15.89
2022-10-26T02:46:58.900Z,15.82
2022-10-26T02:49:26.063Z,15.80
2022-10-26T02:52:10.427Z,15.79
2022-10-26T02:54:40.382Z,15.76
2022-10-26T02:57:10.161Z,15.77
2022-10-26T02:59:38.281Z,15.76
2022-10-26T03:02:05.228Z,15.71
2022-10-26T03:04:32.683Z,15.71
2022-10-26T03:06:59.665Z,15.69
2022-10-26T03:09:26.685Z,15.67
2022-10-26T03:11:53.871Z,15.63
2022-10-26T03:14:20.758Z,15.59
2022-10-26T03:16:47.688Z,15.52
2022-10-26T03:19:14.478Z,15.49
2022-10-26T03:21:42.450Z,15.48
2022-10-26T03:24:09.776Z,15.45
2022-10-26T03:26:36.917Z,15.42
2022-10-26T03:29:03.663Z,15.44
2022-10-26T03:31:30.392Z,15.42
2022-10-26T03:33:57.250Z,15.44
2022-10-26T03:36:24.084Z,15.42
2022-10-26T03:38:50.843Z,15.39
2022-10-26T03:41:17.869Z,15.36
2022-10-26T03:43:44.749Z,15.36
2022-10-26T03:46:11.492Z,15.35
2022-10-26T03:48:38.268Z,15.29
2022-10-26T03:51:05.104Z,15.24
2022-10-26T03:53:31.912Z,15.27
2022-10-26T03:55:58.643Z,15.18
2022-10-26T04:00:52.187Z,15.20
2022-10-26T04:03:19.207Z,15.14
2022-10-26T04:05:45.909Z,15.13
2022-10-26T04:08:12.830Z,15.14
2022-10-26T04:10:39.737Z,15.13
2022-10-26T04:13:06.528Z,15.14
2022-10-26T04:15:33.376Z,15.09
2022-10-26T04:18:01.381Z,15.12
2022-10-26T04:20:29.445Z,15.13
2022-10-26T04:22:56.890Z,15.13
2022-10-26T04:25:23.875Z,15.13
2022-10-26T04:27:52.810Z,15.12
2022-10-26T04:30:19.756Z,15.16
2022-10-26T04:32:46.581Z,15.14
2022-10-26T04:35:15.474Z,15.16
2022-10-26T04:37:42.537Z,15.19
2022-10-26T04:40:09.662Z,15.21
2022-10-26T04:42:42.715Z,15.19
2022-10-26T04:45:09.966Z,14.93
2022-10-26T04:47:36.842Z,15.19
2022-10-26T04:50:03.961Z,15.22
2022-10-26T04:52:30.717Z,15.21
2022-10-26T04:54:57.450Z,15.23
2022-10-26T04:57:24.300Z,15.21
2022-10-26T04:59:50.999Z,15.15
2022-10-26T05:02:17.916Z,15.08
2022-10-26T05:04:44.824Z,15.10
2022-10-26T05:07:11.522Z,15.10
2022-10-26T05:09:38.254Z,15.13
2022-10-26T05:12:05.269Z,15.12
2022-10-26T05:14:32.211Z,15.13
2022-10-26T05:16:58.970Z,15.12
2022-10-26T05:19:26.037Z,15.10
2022-10-26T05:21:53.562Z,15.11
2022-10-26T05:24:20.614Z,15.04
2022-10-26T05:26:47.555Z,15.08
2022-10-26T05:29:14.263Z,15.03
2022-10-26T05:31:40.986Z,15.00
2022-10-26T05:34:08.234Z,14.99
2022-10-26T05:36:35.070Z,14.96
2022-10-26T05:39:01.987Z,14.93
2022-10-26T05:41:28.712Z,14.95
2022-10-26T05:43:55.450Z,14.98
2022-10-26T05:46:22.248Z,15.03
2022-10-26T05:48:49.243Z,15.00
2022-10-26T05:51:16.508Z,15.03
2022-10-26T05:53:43.306Z,14.99
2022-10-26T05:56:17.048Z,15.01
2022-10-26T05:58:44.206Z,15.03
2022-10-26T06:01:20.295Z,15.04
2022-10-26T06:04:02.345Z,15.09
2022-10-26T06:06:34.610Z,15.09
2022-10-26T06:09:01.723Z,15.14
2022-10-26T06:11:28.631Z,15.16
2022-10-26T06:14:00.283Z,15.18
2022-10-26T06:16:30.300Z,15.20
2022-10-26T06:19:02.078Z,15.30
2022-10-26T06:21:35.267Z,15.32
2022-10-26T06:24:09.043Z,15.32
2022-10-26T06:26:42.146Z,15.31
2022-10-26T06:29:18.065Z,15.25
2022-10-26T06:31:46.293Z,15.31
2022-10-26T06:34:16.030Z,15.35
2022-10-26T06:36:43.518Z,15.36
2022-10-26T06:39:12.081Z,15.39
2022-10-26T06:41:39.193Z,15.37
2022-10-26T06:44:06.303Z,15.31
2022-10-26T06:46:51.649Z,15.30
2022-10-26T06:49:30.678Z,15.30
2022-10-26T06:52:10.825Z,15.36
2022-10-26T06:54:46.033Z,15.36
2022-10-26T06:57:14.499Z,15.36
2022-10-26T06:59:47.079Z,15.44
2022-10-26T07:02:14.853Z,15.49
2022-10-26T07:04:42.961Z,15.54
2022-10-26T07:07:14.871Z,15.54
2022-10-26T07:09:41.893Z,15.63
2022-10-26T07:12:08.630Z,15.64
2022-10-26T07:14:35.455Z,15.71
2022-10-26T07:17:02.671Z,15.72
2022-10-26T07:19:29.587Z,15.76
2022-10-26T07:21:56.840Z,15.81
2022-10-26T07:24:24.171Z,15.81
2022-10-26T07:26:53.775Z,15.90
2022-10-26T07:29:20.495Z,15.93
2022-10-26T07:31:47.458Z,15.98
2022-10-26T07:34:14.363Z,16.11
2022-10-26T07:36:41.247Z,16.06
2022-10-26T07:39:08.518Z,16.08
2022-10-26T07:41:35.694Z,16.08
2022-10-26T07:44:02.514Z,16.06
2022-10-26T07:46:29.303Z,16.07
2022-10-26T07:48:56.524Z,16.10
2022-10-26T07:51:23.437Z,16.18
2022-10-26T07:53:50.310Z,16.15
2022-10-26T07:56:17.229Z,16.19
2022-10-26T07:58:44.081Z,16.23
2022-10-26T08:01:14.606Z,16.29
2022-10-26T08:03:42.391Z,16.36
2022-10-26T08:08:54.517Z,16.49
2022-10-26T08:11:21.298Z,16.47
2022-10-26T08:13:48.208Z,16.59
2022-10-26T08:16:15.089Z,16.64
2022-10-26T08:18:41.866Z,16.56
2022-10-26T08:21:11.759Z,16.68
2022-10-26T08:23:40.864Z,16.72
2022-10-26T08:26:07.805Z,16.79
2022-10-26T08:28:34.764Z,16.82
2022-10-26T08:31:01.714Z,16.86
2022-10-26T08:33:28.789Z,16.84
2022-10-26T08:35:59.402Z,16.82
2022-10-26T08:38:26.547Z,16.85
2022-10-26T08:40:53.809Z,16.87
2022-10-26T08:43:26.176Z,16.91
2022-10-26T08:45:56.998Z,16.94
2022-10-26T08:48:27.251Z,16.99
2022-10-26T08:50:59.623Z,17.03
2022-10-26T08:53:33.122Z,17.13
2022-10-26T08:56:02.306Z,17.19
2022-10-26T08:58:33.316Z,17.08
2022-10-26T09:01:01.294Z,17.28
2022-10-26T09:03:28.335Z,17.33
2022-10-26T09:06:05.914Z,17.36
2022-10-26T09:09:02.240Z,17.36
2022-10-26T09:11:48.017Z,17.48
2022-10-26T09:14:21.058Z,17.60
2022-10-26T09:16:54.206Z,17.66
2022-10-26T09:19:27.520Z,17.71
2022-10-26T09:22:17.502Z,17.73
2022-10-26T09:24:53.422Z,17.78
2022-10-26T09:27:26.595Z,17.91
2022-10-26T09:29:54.425Z,17.86
2022-10-26T09:32:26.409Z,17.85
2022-10-26T09:34:58.781Z,18.01
2022-10-26T09:37:28.629Z,17.97
2022-10-26T09:39:58.586Z,18.03
2022-10-26T09:42:36.531Z,18.06
2022-10-26T09:45:13.497Z,18.03
2022-10-26T09:47:42.557Z,18.08
2022-10-26T09:50:12.309Z,18.11
2022-10-26T09:52:39.161Z,18.21
2022-10-26T09:55:06.127Z,18.28
2022-10-26T09:57:33.694Z,18.31
2022-10-26T10:00:00.649Z,18.33
2022-10-26T10:02:36.824Z,18.36
2022-10-26T10:05:32.561Z,18.43
2022-10-26T10:08:08.839Z,18.48
2022-10-26T10:10:35.752Z,18.46
2022-10-26T10:13:15.613Z,18.51
2022-10-26T10:15:51.054Z,18.65
2022-10-26T10:18:20.204Z,18.73
2022-10-26T10:20:52.053Z,18.71
2022-10-26T10:23:29.762Z,18.78
2022-10-26T10:26:01.034Z,18.83
2022-10-26T10:28:28.618Z,18.88
2022-10-26T10:30:59.416Z,18.93
2022-10-26T10:33:53.209Z,19.04
2022-10-26T10:36:21.417Z,19.11
2022-10-26T10:38:49.594Z,19.14
2022-10-26T10:41:18.731Z,19.18
2022-10-26T10:44:05.818Z,19.19
2022-10-26T10:46:32.834Z,19.20
2022-10-26T10:49:04.294Z,19.21
2022-10-26T10:51:36.698Z,19.25
2022-10-26T10:54:04.926Z,19.29
2022-10-26T10:56:42.506Z,19.35
2022-10-26T10:59:12.370Z,19.33
2022-10-26T11:01:40.930Z,19.37
2022-10-26T11:04:25.653Z,19.43
2022-10-26T11:06:54.146Z,19.46
2022-10-26T11:09:24.808Z,19.55
2022-10-26T11:11:58.296Z,19.57
2022-10-26T11:14:34.971Z,19.62
2022-10-26T11:17:01.759Z,19.61
2022-10-26T11:19:31.599Z,19.59
2022-10-26T11:21:58.603Z,19.64
2022-10-26T11:24:29.001Z,19.71
2022-10-26T11:27:02.193Z,19.81
2022-10-26T11:29:39.473Z,19.84
2022-10-26T11:32:11.717Z,19.92
2022-10-26T11:34:41.576Z,19.94
2022-10-26T11:37:12.353Z,19.94
2022-10-26T11:39:44.570Z,19.99
2022-10-26T11:42:31.915Z,19.97
2022-10-26T11:45:01.842Z,20.06
2022-10-26T11:47:40.806Z,20.12
2022-10-26T11:50:17.872Z,20.15
2022-10-26T11:52:51.247Z,20.29
2022-10-26T11:55:18.624Z,20.29
2022-10-26T11:57:47.019Z,20.31
2022-10-26T12:00:18.261Z,20.38
2022-10-26T12:02:57.334Z,20.43
2022-10-26T12:05:35.288Z,20.46
2022-10-26T12:08:16.591Z,20.56
2022-10-26T12:10:48.547Z,20.60
2022-10-26T12:13:22.275Z,20.69
2022-10-26T12:16:09.247Z,20.66
2022-10-26T12:18:55.414Z,20.62
2022-10-26T12:21:25.270Z,20.65
2022-10-26T12:23:55.281Z,20.71
2022-10-26T12:26:28.231Z,20.67
2022-10-26T12:29:04.461Z,20.70
2022-10-26T12:31:31.351Z,20.79
2022-10-26T12:33:58.719Z,20.80
2022-10-26T12:36:44.152Z,20.84
2022-10-26T12:39:27.055Z,20.86
2022-10-26T12:41:57.196Z,20.88
2022-10-26T12:44:36.383Z,20.85
2022-10-26T12:47:04.660Z,20.80
2022-10-26T12:49:50.233Z,20.89
2022-10-26T12:52:21.736Z,20.93
2022-10-26T12:54:56.762Z,20.95
2022-10-26T12:57:42.506Z,21.06
2022-10-26T13:00:17.913Z,21.04
2022-10-26T13:03:13.215Z,21.04
2022-10-26T13:06:00.253Z,21.06
2022-10-26T13:08:27.659Z,21.09
2022-10-26T13:11:00.866Z,21.14
2022-10-26T13:13:30.554Z,21.19
2022-10-26T13:15:58.129Z,21.17
2022-10-26T13:18:25.236Z,21.22
2022-10-26T13:21:04.304Z,21.22
2022-10-26T13:23:32.394Z,21.24
2022-10-26T13:26:02.534Z,21.27
2022-10-26T13:28:42.989Z,21.28
2022-10-26T13:31:14.182Z,21.32
2022-10-26T13:33:43.455Z,21.32
2022-10-26T13:36:26.176Z,21.31
2022-10-26T13:38:54.085Z,21.23
2022-10-26T13:41:30.682Z,21.24
2022-10-26T13:43:59.006Z,21.22
2022-10-26T13:46:27.697Z,21.26
2022-10-26T13:49:00.189Z,21.22
2022-10-26T13:51:34.583Z,21.21
2022-10-26T13:54:03.456Z,21.17
2022-10-26T13:56:53.154Z,21.15
2022-10-26T13:59:20.446Z,21.10
2022-10-26T14:02:05.161Z,21.12
2022-10-26T14:04:32.204Z,21.12
2022-10-26T14:06:59.317Z,21.10
2022-10-26T14:09:26.115Z,21.06
2022-10-26T14:11:54.116Z,21.00
2022-10-26T14:14:24.322Z,21.01
2022-10-26T14:16:52.660Z,21.03
2022-10-26T14:19:29.983Z,20.99
2022-10-26T14:21:57.444Z,21.00
2022-10-26T14:24:40.894Z,20.96
2022-10-26T14:27:21.925Z,20.93
2022-10-26T14:30:09.914Z,20.90
2022-10-26T14:32:37.128Z,20.84
2022-10-26T14:35:04.200Z,20.85
2022-10-26T14:37:37.184Z,20.77
2022-10-26T14:40:04.835Z,20.72
2022-10-26T14:42:38.435Z,20.67
2022-10-26T14:45:06.382Z,20.66
2022-10-26T14:47:35.652Z,20.68
2022-10-26T14:50:03.158Z,20.61
2022-10-26T14:52:33.105Z,20.58
2022-10-26T14:55:15.904Z,20.61
2022-10-26T14:57:44.363Z,20.58
2022-10-26T15:00:15.802Z,20.55
2022-10-26T15:02:45.080Z,20.52
2022-10-26T15:05:25.754Z,20.49
2022-10-26T15:07:53.215Z,20.44
2022-10-26T15:10:38.746Z,20.41
2022-10-26T15:13:09.813Z,20.37
2022-10-26T15:15:39.614Z,20.32
2022-10-26T15:18:17.812Z,20.28
2022-10-26T15:20:47.616Z,20.20
2022-10-26T15:23:14.856Z,20.15
2022-10-26T15:25:49.776Z,20.08
2022-10-26T15:28:43.340Z,20.02
2022-10-26T15:31:10.328Z,19.95
2022-10-26T15:33:40.799Z,19.87
2022-10-26T15:36:16.895Z,19.80
2022-10-26T15:38:44.780Z,19.74
2022-10-26T15:41:14.631Z,19.69
2022-10-26T15:43:43.076Z,19.64
2022-10-26T15:46:10.526Z,19.58
2022-10-26T15:48:37.693Z,19.55
2022-10-26T15:51:04.763Z,19.49
2022-10-26T15:53:31.607Z,19.44
2022-10-26T15:55:59.816Z,19.41
2022-10-26T15:58:31.669Z,19.36
2022-10-26T16:00:58.458Z,19.31
2022-10-26T16:03:26.443Z,19.28
2022-10-26T16:06:02.719Z,19.25
2022-10-26T16:08:30.750Z,19.17
2022-10-26T16:10:58.151Z,19.12
2022-10-26T16:13:26.493Z,19.11
2022-10-26T16:15:53.553Z,19.10
2022-10-26T16:18:20.697Z,19.07
2022-10-26T16:20:48.254Z,19.07
2022-10-26T16:23:16.675Z,19.07
2022-10-26T16:25:46.278Z,19.05
2022-10-26T16:28:14.605Z,19.05
2022-10-26T16:33:08.364Z,18.98
2022-10-26T16:35:35.242Z,18.99
2022-10-26T16:38:02.141Z,18.95
2022-10-26T16:40:28.859Z,18.91
2022-10-26T16:42:55.737Z,18.87
2022-10-26T16:45:22.553Z,18.88
2022-10-26T16:47:49.815Z,18.85
2022-10-26T16:50:20.674Z,18.79
2022-10-26T16:52:47.349Z,18.78
2022-10-26T16:55:14.266Z,18.73
2022-10-26T16:57:41.258Z,18.71
2022-10-26T17:00:08.513Z,18.68
2022-10-26T17:02:35.530Z,18.65
2022-10-26T17:05:05.979Z,18.60
2022-10-26T17:07:34.816Z,18.59
2022-10-26T17:10:01.641Z,18.57
2022-10-26T17:12:29.949Z,18.55
2022-10-26T17:14:58.875Z,18.52
2022-10-26T17:17:25.631Z,18.48
2022-10-26T17:19:52.784Z,18.44
2022-10-26T17:22:19.506Z,18.43
2022-10-26T17:24:46.249Z,18.37
2022-10-26T17:27:13.024Z,18.36
2022-10-26T17:29:39.797Z,18.30
2022-10-26T17:32:06.571Z,18.26
2022-10-26T17:34:33.305Z,18.22
2022-10-26T17:37:00.218Z,18.17
2022-10-26T17:39:27.211Z,18.13
2022-10-26T17:41:54.147Z,18.09
2022-10-26T17:44:21.286Z,18.09
2022-10-26T17:46:48.306Z,18.02
2022-10-26T17:49:15.165Z,17.99
2022-10-26T17:51:41.994Z,17.97
2022-10-26T17:54:09.108Z,17.92
2022-10-26T17:56:36.157Z,17.89
2022-10-26T17:59:05.230Z,17.89
2022-10-26T18:01:32.270Z,17.84
2022-10-26T18:04:00.571Z,17.82
2022-10-26T18:06:27.313Z,17.77
2022-10-26T18:08:56.189Z,17.73
2022-10-26T18:11:26.786Z,17.70
2022-10-26T18:13:54.476Z,17.69
2022-10-26T18:16:24.930Z,17.62
2022-10-26T18:19:09.862Z,17.60
2022-10-26T18:21:40.480Z,17.60
2022-10-26T18:24:07.510Z,17.56
2022-10-26T18:26:34.764Z,17.51
2022-10-26T18:29:02.307Z,17.47
2022-10-26T18:31:30.544Z,17.42
2022-10-26T18:34:04.438Z,17.39
2022-10-26T18:36:31.615Z,17.33
2022-10-26T18:38:58.476Z,17.28
2022-10-26T18:41:25.809Z,17.26
2022-10-26T18:43:54.041Z,17.20
2022-10-26T18:46:25.317Z,17.18
2022-10-26T18:48:52.781Z,17.14
2022-10-26T18:51:25.242Z,17.14
2022-10-26T18:53:52.041Z,17.11
2022-10-26T18:56:20.436Z,17.08
2022-10-26T18:58:48.911Z,17.05
2022-10-26T19:01:15.668Z,17.02
2022-10-26T19:03:43.487Z,16.95
2022-10-26T19:06:18.438Z,16.92
2022-10-26T19:08:46.107Z,16.87
2022-10-26T19:11:14.573Z,16.84
2022-10-26T19:13:41.611Z,16.81
2022-10-26T19:16:17.161Z,16.80
2022-10-26T19:18:48.892Z,16.77
2022-10-26T19:21:17.755Z,16.74
2022-10-26T19:23:45.544Z,16.65
2022-10-26T19:26:13.772Z,16.61
2022-10-26T19:28:40.648Z,16.54
2022-10-26T19:31:08.818Z,16.47
2022-10-26T19:33:35.599Z,16.44
2022-10-26T19:36:04.672Z,16.44
2022-10-26T19:38:31.503Z,16.45
2022-10-26T19:41:00.322Z,16.43
2022-10-26T19:43:29.676Z,16.43
2022-10-26T19:45:56.856Z,16.41
2022-10-26T19:48:23.795Z,16.36
2022-10-26T19:50:52.745Z,16.35
2022-10-26T19:53:21.394Z,16.33
2022-10-26T19:55:49.222Z,16.26
2022-10-26T19:58:16.197Z,16.22
2022-10-26T20:00:43.892Z,16.20
2022-10-26T20:03:11.048Z,16.19
2022-10-26T20:05:44.461Z,16.15
2022-10-26T20:08:11.623Z,16.12
2022-10-26T20:10:42.683Z,16.08
2022-10-26T20:13:14.037Z,16.06
2022-10-26T20:15:41.387Z,16.01
2022-10-26T20:18:08.840Z,15.97
2022-10-26T20:20:37.995Z,15.89
2022-10-26T20:23:08.461Z,15.86
2022-10-26T20:25:37.959Z,15.81
2022-10-26T20:28:06.457Z,15.78
2022-10-26T20:30:35.584Z,15.75
2022-10-26T20:33:02.755Z,15.74
2022-10-26T20:35:29.666Z,15.71
2022-10-26T20:37:56.537Z,15.69
2022-10-26T20:40:24.263Z,15.67
2022-10-26T20:42:52.473Z,15.63
2022-10-26T20:45:29.846Z,15.60
2022-10-26T20:47:57.192Z,15.61
2022-10-26T20:50:24.747Z,15.59
2022-10-26T20:52:54.790Z,15.53
2022-10-26T20:55:24.782Z,15.52
2022-10-26T20:57:58.409Z,15.49
2022-10-26T21:00:25.769Z,15.47
2022-10-26T21:02:52.712Z,15.42
2022-10-26T21:05:21.040Z,15.36
2022-10-26T21:07:48.024Z,15.34
2022-10-26T21:10:15.517Z,15.31
2022-10-26T21:12:42.533Z,15.26
2022-10-26T21:15:09.747Z,15.28
2022-10-26T21:17:36.687Z,15.26
2022-10-26T21:20:03.623Z,15.22
2022-10-26T21:22:30.493Z,15.20
2022-10-26T21:24:57.364Z,15.17
2022-10-26T21:27:25.472Z,15.15
2022-10-26T21:29:52.408Z,15.11
2022-10-26T21:32:19.230Z,15.09
2022-10-26T21:34:46.287Z,15.06
2022-10-26T21:37:13.438Z,15.06
2022-10-26T21:39:40.237Z,15.01
2022-10-26T21:42:07.130Z,14.96
2022-10-26T21:44:40.923Z,14.91
2022-10-26T21:47:08.954Z,14.87
2022-10-26T21:49:35.810Z,14.88
2022-10-26T21:52:02.786Z,14.86
2022-10-26T21:54:29.579Z,14.81
2022-10-26T21:56:56.475Z,14.74
2022-10-26T21:59:23.314Z,14.73
2022-10-26T22:01:50.181Z,14.71
2022-10-26T22:04:17.404Z,14.68
2022-10-26T22:06:44.202Z,14.62
2022-10-26T22:09:11.267Z,14.65
2022-10-26T22:11:56.456Z,14.59
2022-10-26T22:14:23.572Z,14.57
2022-10-26T22:16:50.298Z,14.51
2022-10-26T22:19:17.218Z,14.48
2022-10-26T22:21:43.976Z,14.49
2022-10-26T22:24:11.241Z,14.50
2022-10-26T22:26:38.549Z,14.46
2022-10-26T22:29:05.815Z,14.43
2022-10-26T22:31:34.118Z,14.42
2022-10-26T22:34:06.378Z,14.38
2022-10-26T22:36:35.053Z,14.38
2022-10-26T22:39:02.423Z,14.37
2022-10-26T22:41:29.226Z,14.36
2022-10-26T22:43:56.182Z,14.38
2022-10-26T22:46:24.144Z,14.37
2022-10-26T22:48:54.882Z,14.34
2022-10-26T22:51:23.934Z,14.33
2022-10-26T22:53:54.639Z,14.30
2022-10-26T22:56:23.410Z,14.29
2022-10-26T22:58:52.054Z,14.26
2022-10-26T23:01:20.341Z,14.26
2022-10-26T23:03:47.152Z,14.27
2022-10-26T23:06:15.012Z,14.24
2022-10-26T23:08:42.253Z,14.22
2022-10-26T23:11:10.524Z,14.21
2022-10-26T23:13:37.674Z,14.19
2022-10-26T23:16:08.918Z,14.16
2022-10-26T23:18:35.788Z,14.14
2022-10-26T23:21:03.424Z,14.13
2022-10-26T23:23:30.485Z,14.15
2022-10-26T23:26:04.628Z,14.12
2022-10-26T23:28:31.518Z,14.11
2022-10-26T23:30:58.499Z,14.11
2022-10-26T23:33:25.390Z,14.10
2022-10-26T23:35:53.026Z,14.09
2022-10-26T23:38:20.010Z,14.06
2022-10-26T23:40:51.140Z,14.06
2022-10-26T23:43:18.416Z,14.03
2022-10-26T23:45:45.400Z,14.02
2022-10-26T23:48:12.468Z,14.02
2022-10-26T23:50:41.427Z,14.02
2022-10-26T23:53:08.155Z,14.03
2022-10-26T23:55:35.009Z,14.04
2022-10-26T23:58:01.856Z,14.02
